Terminal Aerodrome Forecast
Issued by NWS

Home | Current Version | Previous Version | Text Only | Print | Product List | Glossary On
Versions: 1 2 3 4 5 6 7 8 9 10 11 12 13 14 15 16 17 18 19 20 21 22 23 24 25 26
791
FTUS45 KABQ 160524
TAFROW
TAF
KROW 160524Z 1606/1706 22006KT P6SM BKN250
     FM160800 22006KT P6SM SCT015 BKN150
     FM161800 26012KT P6SM SCT250
     FM170100 30010KT P6SM SCT250=

USA.gov is the U.S. government's official web portal to all federal, state and local government web resources and services.